createdAt,value
2022-09-06T00:00:48.372Z,71.15
2022-09-06T00:03:35.577Z,72.03
2022-09-06T00:06:22.629Z,72.25
2022-09-06T00:09:09.588Z,71.80
2022-09-06T00:11:56.664Z,72.69
2022-09-06T00:14:43.752Z,72.71
2022-09-06T00:17:32.624Z,73.37
2022-09-06T00:20:19.810Z,73.99
2022-09-06T00:23:07.313Z,74.16
2022-09-06T00:26:01.317Z,74.56
2022-09-06T00:28:48.681Z,74.21
2022-09-06T00:31:35.780Z,74.52
2022-09-06T00:34:22.898Z,74.71
2022-09-06T00:37:09.901Z,75.05
2022-09-06T00:39:56.973Z,74.59
2022-09-06T00:42:44.052Z,75.27
2022-09-06T00:45:32.137Z,75.31
2022-09-06T00:48:19.531Z,75.96
2022-09-06T00:51:11.218Z,76.13
2022-09-06T00:53:59.273Z,76.71
2022-09-06T00:56:47.043Z,76.48
2022-09-06T00:59:37.275Z,76.82
2022-09-06T01:02:24.522Z,76.01
2022-09-06T01:05:12.610Z,76.46
2022-09-06T01:07:59.885Z,76.21
2022-09-06T01:11:06.965Z,76.23
2022-09-06T01:13:59.815Z,75.93
2022-09-06T01:17:21.518Z,75.55
2022-09-06T01:20:23.762Z,75.72
2022-09-06T01:23:32.150Z,75.98
2022-09-06T01:26:57.926Z,75.96
2022-09-06T01:30:13.018Z,76.49
2022-09-06T01:33:12.155Z,76.49
2022-09-06T01:36:07.135Z,76.64
2022-09-06T01:38:54.149Z,76.72
2022-09-06T01:41:41.182Z,76.75
2022-09-06T01:44:30.429Z,77.05
2022-09-06T01:47:23.606Z,77.41
2022-09-06T01:50:32.333Z,77.61
2022-09-06T01:53:54.036Z,77.78
2022-09-06T01:56:53.222Z,77.98
2022-09-06T02:00:25.442Z,78.52
2022-09-06T02:03:24.602Z,78.75
2022-09-06T02:06:20.933Z,78.84
2022-09-06T02:09:13.331Z,78.67
2022-09-06T02:12:04.292Z,78.66
2022-09-06T02:14:57.169Z,79.00
2022-09-06T02:17:53.521Z,79.32
2022-09-06T02:20:50.840Z,79.87
2022-09-06T02:23:40.505Z,79.99
2022-09-06T02:26:32.756Z,80.05
2022-09-06T02:29:20.057Z,79.97
2022-09-06T02:32:10.104Z,80.59
2022-09-06T02:34:57.726Z,80.64
2022-09-06T02:37:45.278Z,80.86
2022-09-06T02:40:32.373Z,80.89
2022-09-06T02:43:19.922Z,80.88
2022-09-06T02:46:07.190Z,81.01
2022-09-06T02:48:54.282Z,80.95
2022-09-06T02:51:41.475Z,80.90
2022-09-06T02:54:28.607Z,81.26
2022-09-06T02:57:15.636Z,80.88
2022-09-06T03:00:04.627Z,81.05
2022-09-06T03:02:51.686Z,81.08
2022-09-06T03:05:38.955Z,80.97
2022-09-06T03:08:26.532Z,80.99
2022-09-06T03:11:13.983Z,81.00
2022-09-06T03:14:00.996Z,80.69
2022-09-06T03:16:48.087Z,81.01
2022-09-06T03:19:35.208Z,81.48
2022-09-06T03:22:22.222Z,81.63
2022-09-06T03:25:10.408Z,81.24
2022-09-06T03:27:57.458Z,81.17
2022-09-06T03:30:46.257Z,81.32
2022-09-06T03:33:33.427Z,81.31
2022-09-06T03:36:20.569Z,81.40
2022-09-06T03:39:07.672Z,81.35
2022-09-06T03:41:54.636Z,81.57
2022-09-06T03:44:41.778Z,81.72
2022-09-06T03:47:28.722Z,82.00
2022-09-06T03:50:15.898Z,82.64
2022-09-06T03:53:02.845Z,82.32
2022-09-06T03:55:52.796Z,82.58
2022-09-06T03:58:39.799Z,82.47
2022-09-06T04:01:27.003Z,82.56
2022-09-06T04:04:14.165Z,82.60
2022-09-06T04:07:01.226Z,82.50
2022-09-06T04:09:48.572Z,82.75
2022-09-06T04:12:35.567Z,82.89
2022-09-06T04:15:22.526Z,82.47
2022-09-06T04:18:09.533Z,82.16
2022-09-06T04:20:57.191Z,82.09
2022-09-06T04:23:44.213Z,81.69
2022-09-06T04:26:31.411Z,81.86
2022-09-06T04:29:18.425Z,81.52
2022-09-06T04:32:05.652Z,81.55
2022-09-06T04:34:52.695Z,81.70
2022-09-06T04:37:40.065Z,81.42
2022-09-06T04:40:27.129Z,81.10
2022-09-06T04:43:14.116Z,81.08
2022-09-06T04:46:09.563Z,81.27
2022-09-06T04:48:58.102Z,81.47
2022-09-06T04:51:45.122Z,81.40
2022-09-06T04:54:32.265Z,81.13
2022-09-06T04:57:19.310Z,81.19
2022-09-06T05:00:07.153Z,81.71
2022-09-06T05:02:54.164Z,81.70
2022-09-06T05:05:41.492Z,80.88
2022-09-06T05:08:29.831Z,80.66
2022-09-06T05:11:18.150Z,80.40
2022-09-06T05:14:10.244Z,80.59
2022-09-06T05:20:29.037Z,80.35
2022-09-06T05:23:16.201Z,80.41
2022-09-06T05:26:07.961Z,79.67
2022-09-06T05:28:55.844Z,79.76
2022-09-06T05:32:17.802Z,79.95
2022-09-06T05:38:07.811Z,79.75
2022-09-06T05:41:07.971Z,79.06
2022-09-06T05:43:55.606Z,78.93
2022-09-06T05:49:57.788Z,78.56
2022-09-06T06:04:19.430Z,79.77
2022-09-06T06:11:21.534Z,79.69
2022-09-06T06:17:28.345Z,82.65
2022-09-06T06:24:04.108Z,85.61
2022-09-06T06:26:51.298Z,87.41
2022-09-06T06:29:38.303Z,88.51
2022-09-06T06:32:30.665Z,90.64
2022-09-06T06:35:18.585Z,91.43
2022-09-06T06:38:05.651Z,93.14
2022-09-06T06:40:57.219Z,93.47
2022-09-06T06:44:03.569Z,93.43
2022-09-06T06:46:51.718Z,95.41
2022-09-06T06:49:39.191Z,95.52
2022-09-06T07:30:45.100Z,90.48
2022-09-06T07:37:25.491Z,89.80
2022-09-06T07:54:31.865Z,89.30
2022-09-06T07:57:24.218Z,88.34
2022-09-06T08:04:53.490Z,86.82
2022-09-06T08:07:40.944Z,85.82
2022-09-06T08:10:31.398Z,84.75
2022-09-06T08:29:16.379Z,81.75
2022-09-06T08:32:03.875Z,81.04
2022-09-06T08:34:50.926Z,80.12
2022-09-06T08:37:37.976Z,79.86
2022-09-06T08:40:25.554Z,79.47
2022-09-06T08:43:18.602Z,79.00
2022-09-06T08:46:07.998Z,78.70
2022-09-06T08:48:55.615Z,78.33
2022-09-06T08:52:20.092Z,79.79
2022-09-06T08:55:23.806Z,78.68
2022-09-06T08:58:18.349Z,79.15
2022-09-06T09:01:17.662Z,80.18
2022-09-06T09:04:07.633Z,80.70
2022-09-06T09:07:00.818Z,80.89
2022-09-06T09:09:48.098Z,80.86
2022-09-06T09:12:42.287Z,80.96
2022-09-06T09:15:29.462Z,81.26
2022-09-06T09:18:25.791Z,81.12
2022-09-06T09:21:14.153Z,81.13
2022-09-06T09:24:13.483Z,80.80
2022-09-06T09:27:08.787Z,80.82
2022-09-06T09:33:29.218Z,81.72
2022-09-06T09:36:21.490Z,80.94
2022-09-06T09:39:12.662Z,80.54
2022-09-06T09:42:00.047Z,79.14
2022-09-06T09:44:47.154Z,78.10
2022-09-06T09:47:34.567Z,77.06
2022-09-06T09:50:31.939Z,76.69
2022-09-06T09:53:22.543Z,75.20
2022-09-06T09:56:09.655Z,74.60
2022-09-06T09:59:01.801Z,73.46
2022-09-06T10:01:49.902Z,73.34
2022-09-06T10:04:45.120Z,72.34
2022-09-06T10:07:49.929Z,71.72
2022-09-06T10:10:43.459Z,71.36
2022-09-06T10:13:31.226Z,71.33
2022-09-06T10:16:47.461Z,70.29
2022-09-06T10:19:43.248Z,70.19
2022-09-06T10:22:51.269Z,69.34
2022-09-06T10:25:43.041Z,67.69
2022-09-06T10:28:39.429Z,66.71
2022-09-06T10:32:11.063Z,65.04
2022-09-06T10:47:15.863Z,61.83
2022-09-06T10:50:06.407Z,61.09
2022-09-06T11:02:02.765Z,61.23
2022-09-06T11:09:31.943Z,59.91
2022-09-06T11:36:10.130Z,56.34
2022-09-06T11:41:53.102Z,55.58
2022-09-06T12:18:43.262Z,54.22
2022-09-06T12:21:36.456Z,53.78
2022-09-06T12:39:12.722Z,53.31
2022-09-06T12:42:06.946Z,53.69
2022-09-06T14:01:11.739Z,49.42
2022-09-06T14:03:59.638Z,48.51
2022-09-06T14:06:47.937Z,48.81
2022-09-06T14:09:34.938Z,48.79
2022-09-06T14:12:21.978Z,48.40
2022-09-06T14:15:10.022Z,48.71
2022-09-06T14:17:57.138Z,47.52
2022-09-06T14:20:52.347Z,47.45
2022-09-06T14:23:39.454Z,47.30
2022-09-06T14:26:26.544Z,47.81
2022-09-06T14:29:13.607Z,48.70
2022-09-06T14:32:00.853Z,48.79
2022-09-06T14:34:47.952Z,48.51
2022-09-06T14:37:34.969Z,49.11
2022-09-06T14:40:22.229Z,48.50
2022-09-06T14:43:09.229Z,48.39
2022-09-06T14:46:12.846Z,48.40
2022-09-06T14:49:07.465Z,48.62
2022-09-06T14:51:54.619Z,47.84
2022-09-06T14:54:41.736Z,48.59
2022-09-06T14:57:30.109Z,48.18
2022-09-06T15:00:17.883Z,47.73
2022-09-06T15:03:04.929Z,48.72
2022-09-06T15:05:51.975Z,48.17
2022-09-06T15:08:39.072Z,48.40
2022-09-06T15:11:35.079Z,48.15
2022-09-06T15:14:28.474Z,48.43
2022-09-06T15:17:15.556Z,48.32
2022-09-06T15:20:02.976Z,48.89
2022-09-06T15:22:56.322Z,49.07
2022-09-06T15:25:56.245Z,49.12
2022-09-06T15:28:44.548Z,48.92
2022-09-06T15:31:34.290Z,49.21
2022-09-06T15:34:24.350Z,48.44
2022-09-06T15:37:11.313Z,48.85
2022-09-06T15:39:58.384Z,48.33
2022-09-06T15:42:45.471Z,49.07
2022-09-06T15:45:46.763Z,49.40
2022-09-06T15:48:47.984Z,49.95
2022-09-06T15:51:37.222Z,49.87
2022-09-06T15:54:44.380Z,49.42
2022-09-06T15:57:31.470Z,50.08
2022-09-06T16:00:22.193Z,49.75
2022-09-06T16:03:09.217Z,49.88
2022-09-06T16:09:19.854Z,50.71
2022-09-06T16:12:07.115Z,50.27
2022-09-06T16:14:54.124Z,50.13
2022-09-06T16:17:41.187Z,50.69
2022-09-06T16:20:31.658Z,50.61
2022-09-06T16:23:20.618Z,51.03
2022-09-06T16:26:09.462Z,50.92
2022-09-06T16:28:56.460Z,51.06
2022-09-06T16:31:43.548Z,51.81
2022-09-06T16:34:30.650Z,51.61
2022-09-06T16:37:17.713Z,52.13
2022-09-06T16:40:05.203Z,52.03
2022-09-06T16:42:54.568Z,52.69
2022-09-06T16:45:41.730Z,52.58
2022-09-06T16:48:29.469Z,52.13
2022-09-06T16:51:18.597Z,54.28
2022-09-06T16:54:05.690Z,53.01
2022-09-06T16:56:52.878Z,53.13
2022-09-06T16:59:40.736Z,54.09
2022-09-06T17:02:28.383Z,54.71
2022-09-06T17:05:15.417Z,54.73
2022-09-06T17:08:03.314Z,54.74
2022-09-06T17:10:50.366Z,54.73
2022-09-06T17:13:38.041Z,56.06
2022-09-06T17:16:44.205Z,55.73
2022-09-06T17:19:40.274Z,56.49
2022-09-06T17:22:27.358Z,57.29
2022-09-06T17:25:14.785Z,57.52
2022-09-06T17:28:01.984Z,57.03
2022-09-06T17:30:49.856Z,57.19
2022-09-06T17:33:37.197Z,57.92
2022-09-06T17:36:30.564Z,58.78
2022-09-06T17:39:21.041Z,58.84
2022-09-06T17:42:08.718Z,59.69
2022-09-06T17:44:55.749Z,59.69
2022-09-06T17:47:42.748Z,59.97
2022-09-06T17:50:33.959Z,60.73
2022-09-06T17:53:20.982Z,61.56
2022-09-06T17:56:10.389Z,62.27
2022-09-06T17:59:00.098Z,63.13
2022-09-06T18:01:47.608Z,63.67
2022-09-06T18:04:34.852Z,64.26
2022-09-06T18:07:21.902Z,65.47
2022-09-06T18:10:10.021Z,65.74
2022-09-06T18:12:57.010Z,66.22
2022-09-06T18:15:44.146Z,66.52
2022-09-06T18:18:32.786Z,67.44
2022-09-06T18:21:20.221Z,67.91
2022-09-06T18:24:09.400Z,68.85
2022-09-06T18:26:56.444Z,68.95
2022-09-06T18:29:43.490Z,70.06
2022-09-06T18:32:30.986Z,70.49
2022-09-06T18:35:18.072Z,70.72
2022-09-06T18:38:05.158Z,71.08
2022-09-06T18:40:52.330Z,71.41
2022-09-06T18:43:40.395Z,71.75
2022-09-06T18:46:27.871Z,72.82
2022-09-06T18:49:16.130Z,73.16
2022-09-06T18:52:05.174Z,73.31
2022-09-06T18:54:52.361Z,74.46
2022-09-06T18:57:39.558Z,74.90
2022-09-06T19:00:26.992Z,74.92
2022-09-06T19:03:14.464Z,75.00
2022-09-06T19:06:06.757Z,75.64
2022-09-06T19:08:57.581Z,75.73
2022-09-06T19:11:47.072Z,75.65
2022-09-06T19:14:34.370Z,76.08
2022-09-06T19:17:21.387Z,76.52
2022-09-06T19:20:10.789Z,77.23
2022-09-06T19:22:57.789Z,77.92
2022-09-06T19:25:45.890Z,78.41
2022-09-06T19:28:33.745Z,79.14
2022-09-06T19:31:20.838Z,79.26
2022-09-06T19:34:08.013Z,79.91
2022-09-06T19:36:57.379Z,80.19
2022-09-06T19:39:44.460Z,80.12
2022-09-06T19:42:31.561Z,79.82
2022-09-06T19:45:18.595Z,80.67
2022-09-06T19:48:06.506Z,81.05
2022-09-06T19:50:53.490Z,80.97
2022-09-06T19:53:41.958Z,81.41
2022-09-06T19:56:34.486Z,82.10
2022-09-06T19:59:21.501Z,82.18
2022-09-06T20:02:09.463Z,82.18
2022-09-06T20:04:56.551Z,82.52
2022-09-06T20:07:43.749Z,83.08
2022-09-06T20:10:31.185Z,82.88
2022-09-06T20:13:18.274Z,82.43
2022-09-06T20:16:07.328Z,83.01
2022-09-06T20:18:55.214Z,82.64
2022-09-06T20:21:43.044Z,82.36
2022-09-06T20:24:30.058Z,82.82
2022-09-06T20:27:17.117Z,82.78
2022-09-06T20:30:04.517Z,83.10
2022-09-06T20:32:51.517Z,83.24
2022-09-06T20:35:38.550Z,82.92
2022-09-06T20:38:26.015Z,82.73
2022-09-06T20:41:16.410Z,82.56
2022-09-06T20:44:03.944Z,82.01
2022-09-06T20:46:51.590Z,82.82
2022-09-06T20:49:38.653Z,82.11
2022-09-06T20:52:25.963Z,82.12
2022-09-06T20:55:13.025Z,81.98
2022-09-06T20:58:00.018Z,82.39
2022-09-06T21:00:47.033Z,82.92
2022-09-06T21:03:37.308Z,82.66
2022-09-06T21:06:29.100Z,82.21
2022-09-06T21:09:16.506Z,82.70
2022-09-06T21:12:04.682Z,83.32
2022-09-06T21:14:51.787Z,83.39
2022-09-06T21:17:39.039Z,83.58
2022-09-06T21:20:26.326Z,83.04
2022-09-06T21:23:13.693Z,82.78
2022-09-06T21:26:03.161Z,83.21
2022-09-06T21:28:50.639Z,84.21
2022-09-06T21:31:38.288Z,84.70
2022-09-06T21:34:25.895Z,85.07
2022-09-06T21:37:13.071Z,84.54
2022-09-06T21:40:00.285Z,84.38
2022-09-06T21:42:48.009Z,84.69
2022-09-06T21:45:38.261Z,84.87
2022-09-06T21:48:25.507Z,85.43
2022-09-06T21:51:18.697Z,85.13
2022-09-06T21:54:06.862Z,84.57
2022-09-06T21:56:54.783Z,85.00
2022-09-06T21:59:41.857Z,83.81
2022-09-06T22:02:29.035Z,84.18
2022-09-06T22:05:16.134Z,83.82
2022-09-06T22:08:03.390Z,84.19
2022-09-06T22:10:50.714Z,84.10
2022-09-06T22:13:38.210Z,84.57
2022-09-06T22:16:25.344Z,84.08
2022-09-06T22:19:12.809Z,84.60
2022-09-06T22:21:59.785Z,83.99
2022-09-06T22:24:46.858Z,83.86
2022-09-06T22:27:33.909Z,84.49
2022-09-06T22:30:25.506Z,84.60
2022-09-06T22:33:12.728Z,84.52
2022-09-06T22:36:02.959Z,84.07
2022-09-06T22:38:57.502Z,84.61
2022-09-06T22:41:44.965Z,85.66
2022-09-06T22:44:31.978Z,85.96
2022-09-06T22:47:19.030Z,85.55
2022-09-06T22:50:06.737Z,85.28
2022-09-06T22:52:54.141Z,85.64
2022-09-06T22:55:47.284Z,85.76
2022-09-06T22:58:35.459Z,86.55
2022-09-06T23:01:22.587Z,87.32
2022-09-06T23:04:10.197Z,87.72
2022-09-06T23:06:59.834Z,87.72
2022-09-06T23:09:46.853Z,87.74
2022-09-06T23:12:33.823Z,88.13
2022-09-06T23:15:20.857Z,88.45
2022-09-06T23:18:08.642Z,88.66
2022-09-06T23:20:55.713Z,88.86
2022-09-06T23:23:43.488Z,89.36
2022-09-06T23:26:32.176Z,89.72
2022-09-06T23:29:19.302Z,89.92
2022-09-06T23:32:07.132Z,90.48
2022-09-06T23:34:55.834Z,91.16
2022-09-06T23:37:42.869Z,91.56
2022-09-06T23:40:29.921Z,92.19
2022-09-06T23:43:16.934Z,92.81
2022-09-06T23:46:04.108Z,92.91
2022-09-06T23:48:51.118Z,93.82
2022-09-06T23:51:38.203Z,93.77
2022-09-06T23:54:25.170Z,93.19
2022-09-06T23:57:12.338Z,92.88
2022-09-06T23:59:59.316Z,91.99
